sensor_id;sensor_type;location;lat;lon;timestamp;P1;durP1;ratioP1;P2;durP2;ratioP2
9420;SDS011;4749;51.398;5.466;2022-10-04T00:04:18;19.35;;;8.25;;
9420;SDS011;4749;51.398;5.466;2022-10-04T00:07:00;12.05;;;7.20;;
9420;SDS011;4749;51.398;5.466;2022-10-04T00:09:32;13.53;;;7.37;;
9420;SDS011;4749;51.398;5.466;2022-10-04T00:12:27;10.80;;;6.68;;
9420;SDS011;4749;51.398;5.466;2022-10-04T00:15:05;12.10;;;6.97;;
9420;SDS011;4749;51.398;5.466;2022-10-04T00:18:00;11.93;;;6.43;;
9420;SDS011;4749;51.398;5.466;2022-10-04T00:28:48;10.47;;;6.77;;
9420;SDS011;4749;51.398;5.466;2022-10-04T00:31:17;10.83;;;6.80;;
9420;SDS011;4749;51.398;5.466;2022-10-04T00:39:24;16.10;;;7.38;;
9420;SDS011;4749;51.398;5.466;2022-10-04T00:44:58;10.70;;;6.85;;
9420;SDS011;4749;51.398;5.466;2022-10-04T00:50:34;13.63;;;6.95;;
9420;SDS011;4749;51.398;5.466;2022-10-04T00:52:59;11.07;;;6.83;;
9420;SDS011;4749;51.398;5.466;2022-10-04T00:55:43;10.05;;;6.78;;
9420;SDS011;4749;51.398;5.466;2022-10-04T00:58:21;13.02;;;6.80;;
9420;SDS011;4749;51.398;5.466;2022-10-04T01:01:04;12.48;;;6.75;;
9420;SDS011;4749;51.398;5.466;2022-10-04T01:03:32;10.50;;;6.30;;
9420;SDS011;4749;51.398;5.466;2022-10-04T01:06:09;12.35;;;6.50;;
9420;SDS011;4749;51.398;5.466;2022-10-04T01:08:39;9.60;;;6.68;;
9420;SDS011;4749;51.398;5.466;2022-10-04T01:11:23;13.57;;;7.10;;
9420;SDS011;4749;51.398;5.466;2022-10-04T01:14:12;11.20;;;6.80;;
9420;SDS011;4749;51.398;5.466;2022-10-04T01:16:47;12.20;;;7.07;;
9420;SDS011;4749;51.398;5.466;2022-10-04T01:19:38;11.88;;;6.43;;
9420;SDS011;4749;51.398;5.466;2022-10-04T01:22:08;11.07;;;6.07;;
9420;SDS011;4749;51.398;5.466;2022-10-04T01:24:58;10.57;;;6.77;;
9420;SDS011;4749;51.398;5.466;2022-10-04T01:27:33;10.83;;;7.07;;
9420;SDS011;4749;51.398;5.466;2022-10-04T01:30:03;11.30;;;7.00;;
9420;SDS011;4749;51.398;5.466;2022-10-04T01:32:37;14.10;;;7.77;;
9420;SDS011;4749;51.398;5.466;2022-10-04T01:35:07;11.27;;;6.97;;
9420;SDS011;4749;51.398;5.466;2022-10-04T01:37:38;17.93;;;7.60;;
9420;SDS011;4749;51.398;5.466;2022-10-04T01:40:07;13.93;;;7.40;;
9420;SDS011;4749;51.398;5.466;2022-10-04T01:42:46;17.17;;;7.90;;
9420;SDS011;4749;51.398;5.466;2022-10-04T01:48:14;12.77;;;8.00;;
9420;SDS011;4749;51.398;5.466;2022-10-04T01:50:56;14.50;;;8.07;;
9420;SDS011;4749;51.398;5.466;2022-10-04T01:53:46;12.83;;;7.97;;
9420;SDS011;4749;51.398;5.466;2022-10-04T01:56:24;11.63;;;7.07;;
9420;SDS011;4749;51.398;5.466;2022-10-04T01:58:59;13.70;;;8.37;;
9420;SDS011;4749;51.398;5.466;2022-10-04T02:01:33;13.07;;;7.57;;
9420;SDS011;4749;51.398;5.466;2022-10-04T02:04:09;12.07;;;7.57;;
9420;SDS011;4749;51.398;5.466;2022-10-04T02:07:03;13.47;;;7.43;;
9420;SDS011;4749;51.398;5.466;2022-10-04T02:09:40;14.10;;;7.23;;
9420;SDS011;4749;51.398;5.466;2022-10-04T02:12:18;22.10;;;8.27;;
9420;SDS011;4749;51.398;5.466;2022-10-04T02:14:46;16.13;;;7.90;;
9420;SDS011;4749;51.398;5.466;2022-10-04T02:17:39;12.80;;;7.60;;
9420;SDS011;4749;51.398;5.466;2022-10-04T02:20:10;15.40;;;7.57;;
9420;SDS011;4749;51.398;5.466;2022-10-04T02:22:51;13.17;;;7.30;;
9420;SDS011;4749;51.398;5.466;2022-10-04T02:25:25;12.77;;;8.00;;
9420;SDS011;4749;51.398;5.466;2022-10-04T02:27:52;13.43;;;7.73;;
9420;SDS011;4749;51.398;5.466;2022-10-04T02:30:21;10.93;;;7.60;;
9420;SDS011;4749;51.398;5.466;2022-10-04T02:32:51;11.90;;;7.53;;
9420;SDS011;4749;51.398;5.466;2022-10-04T02:35:28;15.80;;;7.80;;
9420;SDS011;4749;51.398;5.466;2022-10-04T02:38:12;17.93;;;8.60;;
9420;SDS011;4749;51.398;5.466;2022-10-04T02:40:51;14.43;;;7.60;;
9420;SDS011;4749;51.398;5.466;2022-10-04T02:43:24;17.20;;;7.77;;
9420;SDS011;4749;51.398;5.466;2022-10-04T02:46:06;10.93;;;8.10;;
9420;SDS011;4749;51.398;5.466;2022-10-04T02:48:56;10.87;;;7.07;;
9420;SDS011;4749;51.398;5.466;2022-10-04T02:57:04;14.13;;;8.40;;
9420;SDS011;4749;51.398;5.466;2022-10-04T02:59:41;17.57;;;8.40;;
9420;SDS011;4749;51.398;5.466;2022-10-04T03:02:19;11.00;;;8.57;;
9420;SDS011;4749;51.398;5.466;2022-10-04T03:05:00;12.20;;;8.03;;
9420;SDS011;4749;51.398;5.466;2022-10-04T03:07:37;13.33;;;8.40;;
9420;SDS011;4749;51.398;5.466;2022-10-04T03:10:06;15.10;;;8.17;;
9420;SDS011;4749;51.398;5.466;2022-10-04T03:12:38;14.40;;;9.00;;
9420;SDS011;4749;51.398;5.466;2022-10-04T03:15:07;14.23;;;7.97;;
9420;SDS011;4749;51.398;5.466;2022-10-04T03:17:39;17.10;;;8.07;;
9420;SDS011;4749;51.398;5.466;2022-10-04T03:20:09;13.60;;;9.00;;
9420;SDS011;4749;51.398;5.466;2022-10-04T03:22:43;15.27;;;8.83;;
9420;SDS011;4749;51.398;5.466;2022-10-04T03:25:16;13.27;;;7.63;;
9420;SDS011;4749;51.398;5.466;2022-10-04T03:27:48;15.60;;;9.10;;
9420;SDS011;4749;51.398;5.466;2022-10-04T03:30:17;20.20;;;9.07;;
9420;SDS011;4749;51.398;5.466;2022-10-04T03:32:46;15.67;;;8.90;;
9420;SDS011;4749;51.398;5.466;2022-10-04T03:35:27;14.13;;;8.60;;
9420;SDS011;4749;51.398;5.466;2022-10-04T03:38:00;12.93;;;8.47;;
9420;SDS011;4749;51.398;5.466;2022-10-04T03:40:35;17.20;;;8.67;;
9420;SDS011;4749;51.398;5.466;2022-10-04T03:43:04;13.90;;;8.43;;
9420;SDS011;4749;51.398;5.466;2022-10-04T03:45:32;11.73;;;8.13;;
9420;SDS011;4749;51.398;5.466;2022-10-04T03:48:02;12.77;;;8.37;;
9420;SDS011;4749;51.398;5.466;2022-10-04T03:50:37;15.47;;;8.60;;
9420;SDS011;4749;51.398;5.466;2022-10-04T03:53:24;16.20;;;8.30;;
9420;SDS011;4749;51.398;5.466;2022-10-04T03:56:07;14.33;;;8.77;;
9420;SDS011;4749;51.398;5.466;2022-10-04T03:58:50;16.40;;;8.50;;
9420;SDS011;4749;51.398;5.466;2022-10-04T04:13:05;16.50;;;7.87;;
9420;SDS011;4749;51.398;5.466;2022-10-04T04:15:48;13.50;;;7.97;;
9420;SDS011;4749;51.398;5.466;2022-10-04T04:18:17;11.83;;;7.87;;
9420;SDS011;4749;51.398;5.466;2022-10-04T04:20:49;11.33;;;8.03;;
9420;SDS011;4749;51.398;5.466;2022-10-04T04:23:24;16.17;;;8.23;;
9420;SDS011;4749;51.398;5.466;2022-10-04T04:26:37;15.20;;;8.20;;
9420;SDS011;4749;51.398;5.466;2022-10-04T04:34:18;15.17;;;7.53;;
9420;SDS011;4749;51.398;5.466;2022-10-04T04:36:59;12.53;;;7.73;;
9420;SDS011;4749;51.398;5.466;2022-10-04T04:39:29;12.00;;;7.37;;
9420;SDS011;4749;51.398;5.466;2022-10-04T04:45:02;15.73;;;8.60;;
9420;SDS011;4749;51.398;5.466;2022-10-04T04:47:43;12.50;;;8.03;;
9420;SDS011;4749;51.398;5.466;2022-10-04T04:50:20;9.73;;;6.93;;
9420;SDS011;4749;51.398;5.466;2022-10-04T04:52:57;11.03;;;7.17;;
9420;SDS011;4749;51.398;5.466;2022-10-04T04:55:59;13.37;;;7.03;;
9420;SDS011;4749;51.398;5.466;2022-10-04T04:58:37;11.53;;;7.53;;
9420;SDS011;4749;51.398;5.466;2022-10-04T05:04:04;13.57;;;7.73;;
9420;SDS011;4749;51.398;5.466;2022-10-04T05:06:40;12.97;;;7.50;;
9420;SDS011;4749;51.398;5.466;2022-10-04T05:09:24;11.90;;;7.47;;
9420;SDS011;4749;51.398;5.466;2022-10-04T05:14:37;15.97;;;7.97;;
9420;SDS011;4749;51.398;5.466;2022-10-04T05:17:17;9.83;;;6.63;;
9420;SDS011;4749;51.398;5.466;2022-10-04T05:19:59;14.93;;;7.93;;
9420;SDS011;4749;51.398;5.466;2022-10-04T05:22:28;13.90;;;7.20;;
9420;SDS011;4749;51.398;5.466;2022-10-04T05:24:59;12.00;;;6.40;;
9420;SDS011;4749;51.398;5.466;2022-10-04T05:27:37;15.40;;;7.10;;
9420;SDS011;4749;51.398;5.466;2022-10-04T05:33:45;12.17;;;7.53;;
9420;SDS011;4749;51.398;5.466;2022-10-04T05:41:57;11.20;;;7.03;;
9420;SDS011;4749;51.398;5.466;2022-10-04T05:44:30;13.87;;;7.20;;
9420;SDS011;4749;51.398;5.466;2022-10-04T05:47:10;10.23;;;6.60;;
9420;SDS011;4749;51.398;5.466;2022-10-04T05:49:40;12.43;;;6.37;;
9420;SDS011;4749;51.398;5.466;2022-10-04T05:52:13;8.77;;;6.00;;
9420;SDS011;4749;51.398;5.466;2022-10-04T06:10:28;12.70;;;6.87;;
9420;SDS011;4749;51.398;5.466;2022-10-04T06:22:25;11.77;;;6.70;;
9420;SDS011;4749;51.398;5.466;2022-10-04T06:25:02;11.43;;;6.90;;
9420;SDS011;4749;51.398;5.466;2022-10-04T06:30:22;11.77;;;7.00;;
9420;SDS011;4749;51.398;5.466;2022-10-04T06:35:54;10.03;;;6.60;;
9420;SDS011;4749;51.398;5.466;2022-10-04T06:38:59;11.63;;;6.80;;
9420;SDS011;4749;51.398;5.466;2022-10-04T06:54:06;12.17;;;6.50;;
9420;SDS011;4749;51.398;5.466;2022-10-04T07:00:14;9.97;;;6.83;;
9420;SDS011;4749;51.398;5.466;2022-10-04T07:05:39;9.63;;;6.87;;
9420;SDS011;4749;51.398;5.466;2022-10-04T07:08:23;10.90;;;6.10;;
9420;SDS011;4749;51.398;5.466;2022-10-04T07:11:16;13.07;;;7.70;;
9420;SDS011;4749;51.398;5.466;2022-10-04T07:24:43;10.30;;;6.60;;
9420;SDS011;4749;51.398;5.466;2022-10-04T07:31:01;12.27;;;6.67;;
9420;SDS011;4749;51.398;5.466;2022-10-04T07:33:32;13.37;;;6.60;;
9420;SDS011;4749;51.398;5.466;2022-10-04T07:36:09;13.37;;;7.03;;
9420;SDS011;4749;51.398;5.466;2022-10-04T07:38:55;13.47;;;6.80;;
9420;SDS011;4749;51.398;5.466;2022-10-04T07:41:42;11.43;;;6.27;;
9420;SDS011;4749;51.398;5.466;2022-10-04T07:44:37;14.13;;;6.60;;
9420;SDS011;4749;51.398;5.466;2022-10-04T07:47:18;11.20;;;7.50;;
9420;SDS011;4749;51.398;5.466;2022-10-04T07:49:49;13.18;;;7.03;;
9420;SDS011;4749;51.398;5.466;2022-10-04T07:58:59;13.23;;;6.43;;
9420;SDS011;4749;51.398;5.466;2022-10-04T08:01:56;14.60;;;6.05;;
9420;SDS011;4749;51.398;5.466;2022-10-04T08:56:05;10.35;;;4.72;;
9420;SDS011;4749;51.398;5.466;2022-10-04T09:05:11;9.00;;;4.22;;
9420;SDS011;4749;51.398;5.466;2022-10-04T09:15:41;7.45;;;4.50;;
9420;SDS011;4749;51.398;5.466;2022-10-04T09:18:20;7.22;;;4.35;;
9420;SDS011;4749;51.398;5.466;2022-10-04T09:26:44;9.00;;;4.40;;
9420;SDS011;4749;51.398;5.466;2022-10-04T09:32:36;9.23;;;4.35;;
9420;SDS011;4749;51.398;5.466;2022-10-04T09:47:28;8.30;;;4.00;;
9420;SDS011;4749;51.398;5.466;2022-10-04T09:50:32;8.05;;;4.20;;
9420;SDS011;4749;51.398;5.466;2022-10-04T09:53:36;6.32;;;3.92;;
9420;SDS011;4749;51.398;5.466;2022-10-04T09:56:35;7.65;;;4.00;;
9420;SDS011;4749;51.398;5.466;2022-10-04T10:10:42;9.65;;;3.80;;
9420;SDS011;4749;51.398;5.466;2022-10-04T10:25:51;10.45;;;4.30;;
9420;SDS011;4749;51.398;5.466;2022-10-04T10:35:14;6.28;;;3.90;;
9420;SDS011;4749;51.398;5.466;2022-10-04T10:38:07;6.63;;;3.72;;
9420;SDS011;4749;51.398;5.466;2022-10-04T10:56:51;7.28;;;3.90;;
9420;SDS011;4749;51.398;5.466;2022-10-04T11:06:04;5.57;;;3.60;;
9420;SDS011;4749;51.398;5.466;2022-10-04T11:21:40;6.22;;;3.50;;
9420;SDS011;4749;51.398;5.466;2022-10-04T11:30:51;10.80;;;3.60;;
9420;SDS011;4749;51.398;5.466;2022-10-04T11:37:27;6.68;;;4.03;;
9420;SDS011;4749;51.398;5.466;2022-10-04T11:49:32;5.05;;;3.45;;
9420;SDS011;4749;51.398;5.466;2022-10-04T11:58:48;6.50;;;3.38;;
9420;SDS011;4749;51.398;5.466;2022-10-04T12:11:22;7.80;;;2.72;;
9420;SDS011;4749;51.398;5.466;2022-10-04T12:17:33;5.13;;;3.08;;
9420;SDS011;4749;51.398;5.466;2022-10-04T12:24:00;5.28;;;3.15;;
9420;SDS011;4749;51.398;5.466;2022-10-04T12:32:52;4.75;;;2.50;;
9420;SDS011;4749;51.398;5.466;2022-10-04T13:08:27;5.18;;;2.58;;
9420;SDS011;4749;51.398;5.466;2022-10-04T13:17:33;4.97;;;2.22;;
9420;SDS011;4749;51.398;5.466;2022-10-04T13:20:44;4.38;;;2.47;;
9420;SDS011;4749;51.398;5.466;2022-10-04T13:32:04;3.53;;;2.42;;
9420;SDS011;4749;51.398;5.466;2022-10-04T13:46:23;8.05;;;2.95;;
9420;SDS011;4749;51.398;5.466;2022-10-04T14:47:10;6.97;;;2.65;;
9420;SDS011;4749;51.398;5.466;2022-10-04T14:58:25;4.68;;;2.70;;
9420;SDS011;4749;51.398;5.466;2022-10-04T15:01:26;5.28;;;2.45;;
9420;SDS011;4749;51.398;5.466;2022-10-04T15:06:48;5.88;;;2.95;;
9420;SDS011;4749;51.398;5.466;2022-10-04T15:09:41;3.67;;;2.55;;
9420;SDS011;4749;51.398;5.466;2022-10-04T15:12:43;4.35;;;2.42;;
9420;SDS011;4749;51.398;5.466;2022-10-04T15:32:54;4.18;;;2.85;;
9420;SDS011;4749;51.398;5.466;2022-10-04T15:41:25;4.43;;;2.95;;
9420;SDS011;4749;51.398;5.466;2022-10-04T15:49:36;9.40;;;3.03;;
9420;SDS011;4749;51.398;5.466;2022-10-04T15:55:19;7.32;;;2.85;;
9420;SDS011;4749;51.398;5.466;2022-10-04T15:57:59;6.90;;;2.85;;
9420;SDS011;4749;51.398;5.466;2022-10-04T16:24:47;4.13;;;2.40;;
9420;SDS011;4749;51.398;5.466;2022-10-04T16:33:21;5.65;;;3.15;;
9420;SDS011;4749;51.398;5.466;2022-10-04T16:36:12;7.97;;;3.03;;
9420;SDS011;4749;51.398;5.466;2022-10-04T16:38:46;6.25;;;2.90;;
9420;SDS011;4749;51.398;5.466;2022-10-04T16:41:42;6.55;;;3.03;;
9420;SDS011;4749;51.398;5.466;2022-10-04T16:47:29;6.57;;;3.33;;
9420;SDS011;4749;51.398;5.466;2022-10-04T16:50:17;6.57;;;2.88;;
9420;SDS011;4749;51.398;5.466;2022-10-04T16:53:26;9.27;;;3.33;;
9420;SDS011;4749;51.398;5.466;2022-10-04T16:56:25;6.05;;;3.03;;
9420;SDS011;4749;51.398;5.466;2022-10-04T17:02:14;6.32;;;3.60;;
9420;SDS011;4749;51.398;5.466;2022-10-04T17:16:37;5.43;;;4.32;;
9420;SDS011;4749;51.398;5.466;2022-10-04T17:19:29;7.57;;;4.25;;
9420;SDS011;4749;51.398;5.466;2022-10-04T17:27:51;6.65;;;3.75;;
9420;SDS011;4749;51.398;5.466;2022-10-04T17:30:26;8.00;;;5.10;;
9420;SDS011;4749;51.398;5.466;2022-10-04T17:33:11;6.65;;;5.13;;
9420;SDS011;4749;51.398;5.466;2022-10-04T17:39:45;8.95;;;4.63;;
9420;SDS011;4749;51.398;5.466;2022-10-04T17:42:22;10.48;;;4.38;;
9420;SDS011;4749;51.398;5.466;2022-10-04T17:48:30;7.40;;;4.18;;
9420;SDS011;4749;51.398;5.466;2022-10-04T18:00:08;8.95;;;6.15;;
9420;SDS011;4749;51.398;5.466;2022-10-04T18:06:10;11.15;;;5.35;;
9420;SDS011;4749;51.398;5.466;2022-10-04T18:09:17;7.55;;;5.20;;
9420;SDS011;4749;51.398;5.466;2022-10-04T18:18:18;11.23;;;5.57;;
9420;SDS011;4749;51.398;5.466;2022-10-04T18:23:35;8.25;;;5.72;;
9420;SDS011;4749;51.398;5.466;2022-10-04T18:26:13;10.25;;;6.97;;
9420;SDS011;4749;51.398;5.466;2022-10-04T18:28:44;11.95;;;6.53;;
9420;SDS011;4749;51.398;5.466;2022-10-04T18:37:05;9.00;;;5.93;;
9420;SDS011;4749;51.398;5.466;2022-10-04T18:39:46;10.68;;;6.40;;
9420;SDS011;4749;51.398;5.466;2022-10-04T18:42:21;10.88;;;6.15;;
9420;SDS011;4749;51.398;5.466;2022-10-04T18:45:16;8.48;;;5.70;;
9420;SDS011;4749;51.398;5.466;2022-10-04T18:47:46;8.40;;;5.70;;
9420;SDS011;4749;51.398;5.466;2022-10-04T18:56:08;10.80;;;6.22;;
9420;SDS011;4749;51.398;5.466;2022-10-04T19:04:42;12.82;;;7.15;;
9420;SDS011;4749;51.398;5.466;2022-10-04T19:07:29;8.68;;;6.93;;
9420;SDS011;4749;51.398;5.466;2022-10-04T19:13:23;15.65;;;7.72;;
9420;SDS011;4749;51.398;5.466;2022-10-04T19:16:14;10.40;;;6.82;;
9420;SDS011;4749;51.398;5.466;2022-10-04T19:19:16;10.13;;;7.10;;
9420;SDS011;4749;51.398;5.466;2022-10-04T19:22:02;9.88;;;6.47;;
9420;SDS011;4749;51.398;5.466;2022-10-04T19:28:39;10.75;;;6.63;;
9420;SDS011;4749;51.398;5.466;2022-10-04T19:31:42;11.95;;;6.50;;
9420;SDS011;4749;51.398;5.466;2022-10-04T19:34:24;11.95;;;6.85;;
9420;SDS011;4749;51.398;5.466;2022-10-04T19:40:30;10.68;;;6.72;;
9420;SDS011;4749;51.398;5.466;2022-10-04T19:49:14;9.30;;;6.57;;
9420;SDS011;4749;51.398;5.466;2022-10-04T19:52:12;7.63;;;5.70;;
9420;SDS011;4749;51.398;5.466;2022-10-04T19:54:49;9.15;;;6.03;;
9420;SDS011;4749;51.398;5.466;2022-10-04T19:57:31;8.80;;;5.53;;
9420;SDS011;4749;51.398;5.466;2022-10-04T20:00:10;10.55;;;6.72;;
9420;SDS011;4749;51.398;5.466;2022-10-04T20:02:43;10.23;;;6.78;;
9420;SDS011;4749;51.398;5.466;2022-10-04T20:05:18;10.05;;;6.30;;
9420;SDS011;4749;51.398;5.466;2022-10-04T20:07:55;10.10;;;6.32;;
9420;SDS011;4749;51.398;5.466;2022-10-04T20:10:32;12.70;;;6.50;;
9420;SDS011;4749;51.398;5.466;2022-10-04T20:15:50;10.13;;;7.18;;
9420;SDS011;4749;51.398;5.466;2022-10-04T20:26:06;10.65;;;6.20;;
9420;SDS011;4749;51.398;5.466;2022-10-04T20:28:40;15.07;;;6.65;;
9420;SDS011;4749;51.398;5.466;2022-10-04T20:34:21;11.38;;;6.43;;
9420;SDS011;4749;51.398;5.466;2022-10-04T20:37:09;12.85;;;6.95;;
9420;SDS011;4749;51.398;5.466;2022-10-04T20:42:07;9.45;;;5.85;;
9420;SDS011;4749;51.398;5.466;2022-10-04T20:44:58;8.68;;;5.57;;
9420;SDS011;4749;51.398;5.466;2022-10-04T20:47:35;8.65;;;5.15;;
9420;SDS011;4749;51.398;5.466;2022-10-04T20:52:41;10.73;;;5.20;;
9420;SDS011;4749;51.398;5.466;2022-10-04T20:55:20;7.90;;;5.15;;
9420;SDS011;4749;51.398;5.466;2022-10-04T20:57:54;7.80;;;5.32;;
9420;SDS011;4749;51.398;5.466;2022-10-04T21:00:50;6.57;;;4.45;;
9420;SDS011;4749;51.398;5.466;2022-10-04T21:03:22;10.63;;;5.30;;
9420;SDS011;4749;51.398;5.466;2022-10-04T21:06:04;8.25;;;5.60;;
9420;SDS011;4749;51.398;5.466;2022-10-04T21:08:34;9.13;;;5.35;;
9420;SDS011;4749;51.398;5.466;2022-10-04T21:22:00;9.18;;;5.25;;
9420;SDS011;4749;51.398;5.466;2022-10-04T21:29:55;8.40;;;5.35;;
9420;SDS011;4749;51.398;5.466;2022-10-04T21:32:24;8.90;;;5.55;;
9420;SDS011;4749;51.398;5.466;2022-10-04T21:34:53;6.63;;;4.75;;
9420;SDS011;4749;51.398;5.466;2022-10-04T21:37:20;8.13;;;5.57;;
9420;SDS011;4749;51.398;5.466;2022-10-04T21:39:48;9.05;;;5.80;;
9420;SDS011;4749;51.398;5.466;2022-10-04T21:42:15;10.35;;;6.30;;
9420;SDS011;4749;51.398;5.466;2022-10-04T21:44:43;10.30;;;5.85;;
9420;SDS011;4749;51.398;5.466;2022-10-04T21:47:10;10.25;;;6.20;;
9420;SDS011;4749;51.398;5.466;2022-10-04T21:49:38;11.60;;;5.50;;
9420;SDS011;4749;51.398;5.466;2022-10-04T21:52:05;8.52;;;5.75;;
9420;SDS011;4749;51.398;5.466;2022-10-04T21:54:33;10.65;;;5.72;;
9420;SDS011;4749;51.398;5.466;2022-10-04T21:57:00;7.93;;;6.05;;
9420;SDS011;4749;51.398;5.466;2022-10-04T21:59:28;8.57;;;5.95;;
9420;SDS011;4749;51.398;5.466;2022-10-04T22:01:56;9.70;;;5.57;;
9420;SDS011;4749;51.398;5.466;2022-10-04T22:04:23;7.32;;;6.30;;
9420;SDS011;4749;51.398;5.466;2022-10-04T22:06:50;9.05;;;6.18;;
9420;SDS011;4749;51.398;5.466;2022-10-04T22:09:18;8.13;;;5.50;;
9420;SDS011;4749;51.398;5.466;2022-10-04T22:11:45;8.85;;;5.68;;
9420;SDS011;4749;51.398;5.466;2022-10-04T22:14:13;8.57;;;5.85;;
9420;SDS011;4749;51.398;5.466;2022-10-04T22:16:40;8.95;;;6.32;;
9420;SDS011;4749;51.398;5.466;2022-10-04T22:19:09;7.70;;;5.38;;
9420;SDS011;4749;51.398;5.466;2022-10-04T22:21:36;8.23;;;5.50;;
9420;SDS011;4749;51.398;5.466;2022-10-04T22:24:05;10.52;;;5.90;;
9420;SDS011;4749;51.398;5.466;2022-10-04T22:26:45;7.38;;;5.20;;
9420;SDS011;4749;51.398;5.466;2022-10-04T22:29:13;9.35;;;6.25;;
9420;SDS011;4749;51.398;5.466;2022-10-04T22:34:50;7.85;;;5.60;;
9420;SDS011;4749;51.398;5.466;2022-10-04T22:37:26;7.53;;;5.50;;
9420;SDS011;4749;51.398;5.466;2022-10-04T22:39:55;6.95;;;5.47;;
9420;SDS011;4749;51.398;5.466;2022-10-04T22:42:25;8.20;;;6.18;;
9420;SDS011;4749;51.398;5.466;2022-10-04T22:44:56;7.75;;;5.90;;
9420;SDS011;4749;51.398;5.466;2022-10-04T22:47:27;6.85;;;5.97;;
9420;SDS011;4749;51.398;5.466;2022-10-04T22:49:56;8.98;;;6.63;;
9420;SDS011;4749;51.398;5.466;2022-10-04T22:52:24;8.60;;;5.80;;
9420;SDS011;4749;51.398;5.466;2022-10-04T22:54:55;8.93;;;6.90;;
9420;SDS011;4749;51.398;5.466;2022-10-04T22:57:26;11.07;;;6.35;;
9420;SDS011;4749;51.398;5.466;2022-10-04T22:59:56;10.48;;;6.40;;
9420;SDS011;4749;51.398;5.466;2022-10-04T23:02:24;9.35;;;6.22;;
9420;SDS011;4749;51.398;5.466;2022-10-04T23:04:57;9.35;;;6.70;;
9420;SDS011;4749;51.398;5.466;2022-10-04T23:07:37;9.10;;;6.32;;
9420;SDS011;4749;51.398;5.466;2022-10-04T23:10:04;8.73;;;6.30;;
9420;SDS011;4749;51.398;5.466;2022-10-04T23:12:33;10.55;;;6.55;;
9420;SDS011;4749;51.398;5.466;2022-10-04T23:15:00;8.55;;;6.63;;
9420;SDS011;4749;51.398;5.466;2022-10-04T23:17:29;8.30;;;5.90;;
9420;SDS011;4749;51.398;5.466;2022-10-04T23:20:12;10.80;;;6.15;;
9420;SDS011;4749;51.398;5.466;2022-10-04T23:22:46;11.82;;;6.10;;
9420;SDS011;4749;51.398;5.466;2022-10-04T23:25:24;7.72;;;6.07;;
9420;SDS011;4749;51.398;5.466;2022-10-04T23:27:57;6.90;;;5.68;;
9420;SDS011;4749;51.398;5.466;2022-10-04T23:30:31;10.35;;;6.28;;
9420;SDS011;4749;51.398;5.466;2022-10-04T23:32:58;7.47;;;5.90;;
9420;SDS011;4749;51.398;5.466;2022-10-04T23:35:30;9.80;;;6.00;;
9420;SDS011;4749;51.398;5.466;2022-10-04T23:38:00;8.95;;;6.63;;
9420;SDS011;4749;51.398;5.466;2022-10-04T23:40:32;8.55;;;5.38;;
9420;SDS011;4749;51.398;5.466;2022-10-04T23:43:00;12.02;;;6.38;;
9420;SDS011;4749;51.398;5.466;2022-10-04T23:45:31;9.40;;;6.03;;
9420;SDS011;4749;51.398;5.466;2022-10-04T23:48:00;8.70;;;5.75;;
9420;SDS011;4749;51.398;5.466;2022-10-04T23:53:02;6.95;;;5.80;;
9420;SDS011;4749;51.398;5.466;2022-10-04T23:55:36;8.63;;;5.75;;
9420;SDS011;4749;51.398;5.466;2022-10-04T23:58:14;8.80;;;5.90;;
